9th Annual Endurance Outfitters Hot 2 Trot 5K

Age Group Results

July 18, 2015


Results By Pro-Fit Event Services LLC - Belton, TX www.profiteventservices.com


Men: Top Finishers 1- 9 10-14 15-19 20-24 25-29 30-34 35-39 40-44 45-49 50-54 55-59 60-64 65-69 70-74 75-99
Women: Top Finishers 1- 9 10-14 15-19 20-24 25-29 30-34 35-39 40-44 45-49 50-54 55-59 60-64 65-69 70-74 75-99

5K

Top

Female Open Winners

Place Name City Bib No Age Overall Total Time Pace
1 Natalie Belew 561 20 15 20:51.2 6:44/M
Top

Male Open Winners

Place Name City Bib No Age Overall Total Time Pace
1 Blake Bostick Eddy TX 171 20 1 16:50.7 5:26/M
Top

Female 9 and Under

Place Name City Bib No Age Overall Total Time Pace
1 Kailynn Denney Killeen TX 612 9 60 25:28.5 8:13/M
2 Mia Dennis Fort Hood TX 616 7 138 31:27.0 10:09/M
3 Kate Henn Temple TX 205 7 190 35:39.4 11:30/M
4 Clara Hill Belton TX 678 7 191 35:45.3 11:32/M
5 Audrey Haules 216 7 241 39:57.5 12:53/M
6 Skyler Fonseca Killeen TX 194 5 253 41:46.5 13:28/M
7 Haylee Willson Moody TX 147 7 277 43:38.1 14:05/M
8 Sasha Parker 222 6 282 45:16.8 14:36/M
9 Charles Henn Temple TX 206 5 294 47:59.0 15:29/M
10 Braedyn Brannum 578 8 316 53:38.0 17:18/M
Top

Male 9 and Under

Place Name City Bib No Age Overall Total Time Pace
1 Julian Sandoval Killeen TX 85 9 101 27:57.6 9:01/M
2 Riley Rhodes Temple TX 68 8 131 30:44.5 9:55/M
3 Joshua Roberts 75 8 162 33:26.9 10:47/M
4 Cooper English Temple TX 157 7 172 34:25.5 11:06/M
5 Cooper Summa 114 9 207 36:50.5 11:53/M
6 Nolan Simecek Copperas Cove TX 102 6 230 38:59.1 12:35/M
7 Anthony Banda Killeen TX 178 6 245 40:15.7 12:59/M
8 Grant Summa 116 5 334 58:43.7 18:56/M
Top

Female 10 to 14

Place Name City Bib No Age Overall Total Time Pace
1 Alexcia Gaines Copperas Cove TX 642 12 176 34:40.9 11:11/M
2 Lexandra Cornell 599 10 205 36:36.9 11:48/M
3 Bailey Denney Killeen TX 611 11 215 37:19.2 12:02/M
4 Daisy Barbosa Temple TX 558 14 254 41:55.4 13:31/M
5 Gabrielle Williams 143 14 337 1:00:38.1 19:34/M
Top

Male 10 to 14

Place Name City Bib No Age Overall Total Time Pace
1 Chase Bennett Buda TX 564 13 6 18:55.3 6:06/M
2 Jeremiah Saria 90 12 18 21:25.7 6:55/M
3 Stephen Dennis III Fort Hood TX 617 11 43 24:17.7 7:50/M
4 Josh Dehart Belton TX 609 13 44 24:25.0 7:53/M
5 Jason Dennis Fort Hood TX 615 10 58 25:20.5 8:10/M
6 Bryson Lambert Little River,tx 76554 TX 995 11 108 28:47.0 9:17/M
7 Mason Lambert Little River,tx 76554 TX 997 11 121 29:33.3 9:32/M
8 Bryce Roberts 73 10 199 36:21.2 11:44/M
9 Brian Eaton Jr Copperas Cove TX 625 14 246 40:45.5 13:09/M
Top

Female 15 to 19

Place Name City Bib No Age Overall Total Time Pace
1 Aliza Duenes Valley Mills TX 182 18 23 22:11.0 7:09/M
2 Geneva Pantoja 51 17 125 29:50.9 9:37/M
3 Andrea Kelly Killeen TX 986 18 150 32:15.8 10:24/M
4 Alyson Bishoff 219 18 203 36:35.1 11:48/M
5 Robbye Gerster 653 17 209 36:53.0 11:54/M
6 Brianna Garner 650 16 269 43:02.3 13:53/M
7 Caitlyn Williams 141 16 342 1:00:52.7 19:38/M
Top

Male 15 to 19

Place Name City Bib No Age Overall Total Time Pace
1 Mike Fuentes Waco TX 164 17 2 18:06.8 5:50/M
2 Xavier Andersen 555 16 4 18:20.8 5:55/M
3 Robert Pereira 56 19 9 20:04.8 6:28/M
4 Jackson Cook 597 15 14 20:42.3 6:41/M
5 Aubrey Kelly Killeen TX 987 16 20 21:40.6 6:59/M
6 Quinton Alexander Copperas Cove TX 551 16 53 25:09.1 8:07/M
7 Elias Tames 119 18 122 29:45.9 9:36/M
8 Elijah Rinker 71 17 194 36:08.2 11:39/M
9 Nicholas Wright Killeen TX 176 15 221 37:42.0 12:10/M
Top

Female 20 to 24

Place Name City Bib No Age Overall Total Time Pace
1 Alejandrina Garcia 646 20 129 30:41.9 9:54/M
2 Sarah Brassard Copperas Cove TX 197 24 144 31:41.5 10:13/M
3 Sara Schumacher 93 24 149 32:07.1 10:22/M
4 Courtney Mueller 37 23 197 36:16.9 11:42/M
5 Caroline Bosarge 215 23 201 36:30.7 11:46/M
6 Kirsten Vandyke Temple TX 127 24 212 37:13.3 12:00/M
7 Courtney Risch 214 23 220 37:36.5 12:08/M
8 Bethany Akers Kempner TX 165 24 236 39:19.2 12:41/M
9 Deidra McLaughlin 26 24 242 39:59.9 12:54/M
10 Tesa Miller 32 23 284 45:45.4 14:45/M
Top

Male 20 to 24

Place Name City Bib No Age Overall Total Time Pace
1 Jay Jones San Marcos TX 201 24 5 18:31.9 5:58/M
2 John Simmons 104 20 24 22:12.6 7:10/M
3 Kyle Hay Killeen TX 168 23 26 22:26.3 7:14/M
4 Kenta Tanaka Gatesville TX 191 23 30 22:45.9 7:20/M
5 Haden Mattke 20 20 39 23:50.0 7:41/M
6 Thomas McCue Killeen TX 25 20 51 25:02.6 8:05/M
7 Jordan Mattke 22 23 78 26:37.5 8:35/M
8 Juan Hernandez 673 23 325 55:21.5 17:51/M
Top

Female 25 to 29

Place Name City Bib No Age Overall Total Time Pace
1 Mahnaz Patterson Killeen TX 52 29 46 24:33.3 7:55/M
2 Erin Johnson Harker Heights,tx 76548 691 28 83 26:57.9 8:42/M
3 Brianna Johnson Temple TX 689 26 94 27:46.7 8:57/M
4 Beth Crawford Temple TX 601 26 105 28:21.7 9:09/M
5 Affma Martin Killeen TX 17 29 114 29:11.1 9:25/M
6 Marie Brown Abilene TX 581 29 116 29:24.5 9:29/M
7 Eunyi Kim-Murphy Killeen TX 990 28 134 30:56.3 9:59/M
8 Lindley Wallace Mendoza 134 27 143 31:39.5 10:13/M
9 Chelsea Chang Temple 596 27 146 32:02.1 10:20/M
10 Kimberly Leinbaugh Fort Hood TX 4 25 155 32:55.9 10:37/M
11 Chelsea Williams Temple TX 626 29 161 33:23.1 10:46/M
12 Cindy Preuninger 60 29 163 33:31.9 10:49/M
13 Tiffany Raiden Killeen TX 187 29 177 34:42.0 11:12/M
14 Karah Gunn 666 29 182 35:09.9 11:20/M
15 Angela Cases Keller,tx 76244 TX 589 29 183 35:19.9 11:24/M
16 Danielle Zimmerman Temple TX 208 28 218 37:29.6 12:05/M
17 Kimberly Charles Killeen TX 179 28 228 38:39.3 12:28/M
18 Ashlie Parker Killeen 213 28 272 43:29.2 14:02/M
19 Rebekah Crawford Temple TX 602 25 281 45:09.4 14:34/M
20 Zubeena Catania 594 26 295 48:00.4 15:29/M
21 Erica Glover Temple TX 628 27 308 50:20.9 16:14/M
22 Stephanie Diaz 618 28 311 51:12.6 16:31/M
23 Pearl Hernandez 674 26 326 55:21.7 17:51/M
24 Liz Barry 560 29 331 58:33.4 18:53/M
Top

Male 25 to 29

Place Name City Bib No Age Overall Total Time Pace
1 Walter Lukesh Temple TX 184 25 3 18:19.8 5:55/M
2 Jordan Hernandez Temple TX 672 29 8 19:13.7 6:12/M
3 Lafe Leinbaugh Fort Hood TX 5 27 16 20:58.0 6:46/M
4 Bryan Glover Temple TX 654 28 17 21:04.5 6:48/M
5 Matt Bachert Temple 211 28 27 22:33.2 7:16/M
6 Ryan Johnson Temple TX 694 26 37 23:40.2 7:38/M
7 Alan Earl 622 27 54 25:11.4 8:07/M
8 Chris Jolley 697 29 61 25:29.6 8:13/M
9 Derek Newman Temple,tx 76502 41 29 64 25:43.8 8:18/M
10 Anthony Mayse 23 25 80 26:44.8 8:37/M
11 Beau Vandyke Temple TX 126 28 95 27:54.2 9:00/M
12 Gabriel Varela 128 25 103 28:09.5 9:05/M
13 Kyle Gunn Harker Heights TX 180 29 106 28:40.9 9:15/M
14 Nicholas Webster 135 28 117 29:26.7 9:30/M
15 Ian Kirst 991 26 135 30:56.8 9:59/M
16 Michael Wirth 150 28 137 31:21.3 10:07/M
17 Joshua Crowley 606 29 152 32:30.7 10:29/M
18 Jordan Barry 559 28 332 58:33.9 18:53/M
Top

Female 30 to 34

Place Name City Bib No Age Overall Total Time Pace
1 Nancy Nickson Temple TX 192 32 29 22:45.5 7:20/M
2 Roxana Carr Killeen TX 588 32 31 22:54.5 7:23/M
3 Camille McCue Killeen TX 24 34 38 23:41.4 7:38/M
4 Christie Wood Killeen TX 152 30 57 25:19.0 8:10/M
5 Lindsay Newman Temple TX 42 33 63 25:41.2 8:17/M
6 Lisa Kelly Killeen TX 181 33 72 26:12.9 8:27/M
7 Tyler Boyd Holland TX 575 30 74 26:23.6 8:31/M
8 Landy Setzer 97 33 85 27:11.3 8:46/M
9 Megan Wolfe Round Rock 151 31 104 28:18.8 9:08/M
10 Christi Stephens Temple TX 111 30 111 28:55.0 9:20/M
11 Kayla Landeros Temple TX 999 32 113 28:58.9 9:21/M
12 Chrissy Wright Killeen TX 153 31 115 29:14.9 9:26/M
13 Corrie Wheeler Milano TX 137 30 123 29:48.3 9:37/M
14 Kelly Rhodes Temple TX 67 34 132 30:45.4 9:55/M
15 Tanya Denney Killeen TX 613 30 148 32:05.2 10:21/M
16 Marilyn Soto Harker Heights TX 106 34 156 32:58.2 10:38/M
17 Tanya Hernandez Killeen TX 675 33 157 33:01.4 10:39/M
18 Angela Ezzell 635 33 166 33:41.8 10:52/M
19 Yane Trevino Temple TX 124 30 169 33:58.1 10:57/M
20 Rosalinda Cordova Belton TX 199 33 170 33:58.2 10:57/M
21 Kendal Lukesh Temple TX 185 31 174 34:28.0 11:07/M
22 Ashley Williams Temple TX 139 31 181 35:06.7 11:19/M
23 Lea Mallett 15 32 186 35:34.0 11:28/M
24 Adriana Sandoval Killeen TX 84 31 214 37:18.7 12:02/M
25 Rebecca Spencer 107 33 222 37:53.0 12:13/M
26 Kati Nicholson Temple,tx 76502 43 31 225 38:08.7 12:18/M
27 Crystal Castillo 591 32 235 39:15.7 12:40/M
28 Jennifer Howard Kempner TX 685 32 237 39:20.2 12:41/M
29 Sarah Fonseca Killeen TX 193 33 252 41:46.3 13:28/M
30 Leslie Gutierrez Temple TX 667 34 262 42:35.3 13:44/M
31 Christina Dmytrus Killeen TX 189 30 283 45:42.8 14:45/M
32 Edwina Frame 640 31 292 47:53.0 15:27/M
33 Jodie Taylor Temple TX 120 32 301 48:31.6 15:39/M
34 Elizabeth Randell San Angelo TX 62 30 315 53:13.3 17:10/M
35 Liliana Vargas 130 30 321 54:16.6 17:30/M
36 Julie Peschel 57 34 322 54:51.6 17:42/M
37 Jennifer Campos Killeen TX 585 30 328 56:43.7 18:18/M
38 Randie Aguilar 550 30 349 1:13:11.5 23:36/M
Top

Male 30 to 34

Place Name City Bib No Age Overall Total Time Pace
1 Keith Dawson Belton TX 607 34 10 20:08.8 6:30/M
2 Jonathan Castillo 592 33 11 20:12.6 6:31/M
3 Jeremy Hamilton Salado TX 669 30 28 22:41.0 7:19/M
4 Daniel MacKey 11 34 47 24:35.8 7:56/M
5 Arturo Vargas 129 31 48 24:47.7 8:00/M
6 Hugh Burke Belton 583 31 89 27:23.2 8:50/M
7 Clint Fry 641 34 141 31:32.3 10:10/M
8 Walter Martin Belton,tx 76513 18 33 165 33:39.3 10:51/M
9 Antonio Parker Killeen 212 31 168 33:48.1 10:54/M
10 Joey English Temple TX 158 33 173 34:25.7 11:06/M
11 Drew Mallett 14 32 187 35:34.0 11:28/M
12 Josh Taylor 121 33 229 38:53.4 12:33/M
13 David Frame 639 31 291 47:50.7 15:26/M
14 John Squyers 109 30 346 1:04:31.5 20:49/M
Top

Female 35 to 39

Place Name City Bib No Age Overall Total Time Pace
1 Christina Sandoval Killeen TX 183 35 71 26:04.4 8:25/M
2 Bonnie Dunlop Harker Heigths TX 619 37 76 26:32.5 8:34/M
3 Nicole Morrison Belton TX 159 38 97 27:54.6 9:00/M
4 Awbrey Lovrien-Moore Temple TX 9 38 109 28:51.8 9:18/M
5 January Turner Killeen TX 125 38 112 28:58.4 9:21/M
6 Ivette Saria 89 36 120 29:33.3 9:32/M
7 Georgette Mielke Kempner TX 29 38 151 32:16.1 10:25/M
8 Jenny Jez 686 35 159 33:20.8 10:45/M
9 Elizabeth Jamo Harker Heights TX 188 36 164 33:38.9 10:51/M
10 Kymra Dorre Copperas Cove TX 156 37 175 34:36.9 11:10/M
11 Lisa Raiden Killeen TX 186 36 179 34:46.9 11:13/M
12 Deborah Colon Temple TX 173 38 192 35:49.8 11:33/M
13 Elizabeth Hill Belton TX 679 39 193 35:56.5 11:35/M
14 Amy Simecek Nolanville TX 101 39 232 38:59.9 12:35/M
15 Lori Gaines Copperas Cove TX 644 39 239 39:39.1 12:47/M
16 Veronica Magana Temple TX 12 39 255 41:56.4 13:32/M
17 Heather Mikulas Temple,tx 76502 30 38 258 42:27.1 13:42/M
18 Erendira Garner 651 38 268 43:02.3 13:53/M
19 Stacy Kyle Killeen TX 994 35 273 43:35.9 14:04/M
20 Peggy Smith Harker Heights TX 105 39 274 43:36.2 14:04/M
21 Candace Hollingsworth Killeen 682 39 297 48:07.0 15:31/M
22 Mi Jung Jung 700 37 298 48:21.2 15:36/M
23 Krystina Seale Temple TX 94 36 300 48:22.0 15:36/M
24 Haydee Lojak 7 38 302 48:48.7 15:45/M
25 Lisa Nunnallee Temple TX 44 36 313 53:08.3 17:08/M
26 Camille Bowser 574 39 317 53:41.8 17:19/M
27 Denise Summa 115 37 335 58:45.6 18:57/M
28 Priscilla Gray 658 36 344 1:01:03.6 19:42/M
29 Devonne Hope 684 39 345 1:01:48.6 19:56/M
30 Janie Squyers 108 36 347 1:04:32.0 20:49/M
Top

Male 35 to 39

Place Name City Bib No Age Overall Total Time Pace
1 Gerhard Hill Belton TX 45 36 19 21:33.1 6:57/M
2 Rob Boynton Temple 576 38 32 22:57.9 7:24/M
3 Jason Moore 35 36 52 25:06.3 8:06/M
4 Nathaniel Hansen Temple TX 671 38 56 25:15.9 8:09/M
5 Jason Lambert Little River,tx 76554 TX 996 36 90 27:31.6 8:53/M
6 Josh Good Belton TX 655 36 99 27:56.7 9:01/M
7 Tony Sandoval Killeen TX 86 37 100 27:56.8 9:01/M
8 Dwayne Gaines 643 38 171 34:13.5 11:02/M
9 Paul Summa 117 37 206 36:50.0 11:53/M
10 Greg Wright Killeen TX 154 35 213 37:16.2 12:01/M
11 Adam Zimmerman Temple TX 209 35 217 37:29.6 12:05/M
12 Stephen Simecek Nolanville TX 103 37 231 38:59.2 12:35/M
13 Michael Self Belton TX 96 36 240 39:48.5 12:50/M
14 Ronald Searls Killeen TX 95 38 261 42:35.1 13:44/M
15 Marc Henn Temple TX 207 39 293 47:58.7 15:28/M
16 Mike Catania 593 36 296 48:02.0 15:30/M
17 Vincente Diaz 676 36 310 51:11.9 16:31/M
18 Matt Peschel 58 35 323 54:52.2 17:42/M
19 Jackie Gray 657 39 338 1:00:41.1 19:35/M
Top

Female 40 to 44

Place Name City Bib No Age Overall Total Time Pace
1 Donna Fabian Huntsville TX 167 40 50 25:00.4 8:04/M
2 J'Neka Robinson Killeen TX 177 41 59 25:23.5 8:11/M
3 Hope Koch Temple TX 992 44 62 25:31.5 8:14/M
4 Holly Landez Killeen TX 1000 44 84 27:04.5 8:44/M
5 Brandi Peebles Belton TX 55 44 128 30:18.9 9:46/M
6 Sonya Walker Harker Heights TX 133 41 130 30:42.9 9:54/M
7 Shelli Miller Kempner TX 163 44 133 30:52.6 9:57/M
8 Manuela Smith Little River TX 195 40 140 31:31.7 10:10/M
9 Susan Stokke Killeen TX 112 41 180 34:48.7 11:14/M
10 Misty Carr Nolanville TX 623 42 196 36:13.2 11:41/M
11 Janice Roberts Belton TX 74 42 198 36:20.6 11:43/M
12 Heather Peacock Killeen TX 54 41 202 36:33.9 11:47/M
13 Jennifer Stark Killeen TX 110 42 224 37:58.0 12:15/M
14 Idamari De Gracia 223 44 244 40:14.3 12:59/M
15 Shannon Gowan Temple,tx 76502 656 44 250 41:30.9 13:23/M
16 Dee Dee Willson Moody TX 146 44 275 43:37.1 14:04/M
17 Georgette Hurt Copperas Cove,tx 76522 TX 198 42 276 43:37.1 14:04/M
18 Lynne Johnson Harker Heights,tx 76548 693 42 287 46:36.6 15:02/M
19 Nilda Melendez Killeen TX 28 41 303 49:00.4 15:48/M
20 Jodi Schuh Temple TX 92 44 314 53:08.8 17:08/M
21 Staci Williams 144 42 343 1:01:03.1 19:42/M
Top

Male 40 to 44

Place Name City Bib No Age Overall Total Time Pace
1 Celester Harrison Jr Belton TX 161 44 21 21:45.7 7:01/M
2 Christopher Andersen 554 42 22 21:58.5 7:05/M
3 Mike Rogers Temple TX 83 40 34 23:08.7 7:28/M
4 Daniel Shin Temple TX 100 42 41 24:10.7 7:48/M
5 Brian Williams Temple 140 44 42 24:17.2 7:50/M
6 Steve Bostelmann Fort Hood TX 572 44 87 27:14.3 8:47/M
7 Ed Lee Copperas Cove TX 2 43 92 27:45.6 8:57/M
8 Steve Smith Little River TX 196 41 145 31:46.4 10:15/M
9 Garry Reagan Temple TX 63 40 153 32:52.7 10:36/M
10 Eric John Austin TX 687 41 306 49:27.6 15:57/M
11 Kenneth McRae Temple,tx 76502 27 40 312 51:19.9 16:33/M
Top

Female 45 to 49

Place Name City Bib No Age Overall Total Time Pace
1 Christine Rodriguez Temple TX 78 49 68 25:59.5 8:23/M
2 Lisa Dehart Belton TX 610 45 79 26:44.5 8:37/M
3 Christine Fletcher Belton TX 637 48 96 27:54.5 9:00/M
4 Lonnie Ellis Copperas Cove TX 632 47 139 31:27.1 10:09/M
5 Maria Hamelers Ft Hood TX 668 45 147 32:04.0 10:21/M
6 Linda Mahan Belton TX 13 49 158 33:03.6 10:40/M
7 Julie Cordova Belton 598 46 178 34:42.8 11:12/M
8 Debbie Morrison Killeen TX 36 49 185 35:32.2 11:28/M
9 Lisa Bishoff 220 46 200 36:29.2 11:46/M
10 Tina Johnson Killeen TX 695 47 204 36:36.0 11:48/M
11 Roxana Peterson Killeen 59 48 227 38:16.4 12:21/M
12 Danielle Jones 218 46 251 41:31.7 13:24/M
13 Yvette Rowland Killeen TX 203 49 257 42:00.7 13:33/M
14 Frances Garcia Temple,tx 76501 648 46 260 42:34.3 13:44/M
15 Ruth Lee Copperas Cove TX 3 48 265 42:38.4 13:45/M
16 Kimberly Millner Fort Hood 34 46 267 42:56.1 13:51/M
17 Karen Kahlig 983 45 271 43:14.4 13:57/M
18 Renee Larson Killeen TX 1 45 280 44:52.9 14:28/M
19 Ulrike Whalen Harker Heights TX 136 49 289 47:11.1 15:13/M
20 Noel Toal Belton TX 123 46 299 48:21.6 15:36/M
21 Gloria Elder Temple,tx 76502 TX 631 49 307 50:20.8 16:14/M
22 Kay Eaton Copperas Cove TX 624 45 320 53:52.7 17:23/M
23 Kristi Taber 118 49 330 58:03.3 18:44/M
24 Carrie Borden John 569 46 336 1:00:34.2 19:32/M
25 Mary Keeton 984 47 340 1:00:50.4 19:37/M
26 Alicia Aguilar 549 47 348 1:13:11.1 23:36/M
Top

Male 45 to 49

Place Name City Bib No Age Overall Total Time Pace
1 Steven Walden Belton TX 132 45 7 19:09.7 6:11/M
2 Chad Bennett Buda TX 563 46 12 20:26.5 6:35/M
3 John Anderson Pflugerville TX 174 48 13 20:41.9 6:40/M
4 Randy Rodak Temple,tx 76502 TX 77 45 35 23:29.1 7:35/M
5 Antonio Millner Fort Hood 33 45 45 24:27.4 7:53/M
6 Daniel Johnson Temple TX 690 46 66 25:46.1 8:19/M
7 Al Pantoja 50 47 91 27:44.6 8:57/M
8 Wesley Johnson 696 49 118 29:29.3 9:31/M
9 Tim Janis Olympia WA 166 48 127 30:15.9 9:45/M
10 Michael White Temple TX 138 47 226 38:11.1 12:19/M
11 Brian Eaton Sr 627 46 264 42:37.3 13:45/M
12 Bernard Brannum Temple,tx 76501 577 47 318 53:42.9 17:19/M
13 Calvin Williams 142 49 341 1:00:51.7 19:38/M
Top

Female 50 to 54

Place Name City Bib No Age Overall Total Time Pace
1 Terri Carter 217 50 65 25:44.5 8:18/M
2 Tara Ambrose Round Rock TX 553 50 67 25:53.4 8:21/M
3 Dominga Anderson Killeem TX 556 50 126 30:03.9 9:42/M
4 Tracey Foglesong Colorado Springs CO 638 54 142 31:37.1 10:12/M
5 Mercedes Deaton Temple,tx 76502 608 54 160 33:21.8 10:45/M
6 Debora Wills Temple TX 145 52 167 33:42.4 10:52/M
7 Cheryl Nelson Temple TX 40 52 211 37:08.8 11:59/M
8 Deborah Brunson Harker Heights TX 582 53 223 37:55.4 12:14/M
9 Patricia Nash Temple 38 50 309 50:51.8 16:24/M
10 Marta Cabrera Belton TX 661 50 327 55:40.9 17:57/M
11 Belinda Mattke 19 51 339 1:00:50.3 19:37/M
Top

Male 50 to 54

Place Name City Bib No Age Overall Total Time Pace
1 Craig Maata 10 52 55 25:15.0 8:09/M
2 David Hogan 681 51 70 26:01.8 8:24/M
3 Stephen Crawford Temple TX 603 54 73 26:14.1 8:28/M
4 Jeffrey Marsteller Killeen TX 16 52 77 26:32.5 8:34/M
5 David Thomas Killeen TX 122 52 195 36:12.0 11:41/M
6 Carl Rinker Harker Heights TX 70 53 208 36:51.6 11:53/M
7 Charles Salter Temple TX 204 54 238 39:22.5 12:42/M
8 Roger Reynolds Temple TX 64 53 278 43:42.3 14:06/M
Top

Female 55 to 59

Place Name City Bib No Age Overall Total Time Pace
1 Barbara Johnson Copperas Cove TX 688 59 36 23:37.4 7:37/M
2 Pamela Holwerda Killeen TX 683 55 88 27:16.8 8:48/M
3 Jill Guerin Kempner TX 662 56 210 37:05.9 11:58/M
4 Ann Crawford Temple TX 600 55 216 37:24.9 12:04/M
5 Hilde Germann Temple TX 652 57 219 37:36.5 12:08/M
6 Cheryl Kibbe Troy TX 989 56 247 40:51.8 13:11/M
7 Viola Ming-Copsy Killeen TX 221 56 248 40:52.0 13:11/M
8 Sonia Belew 562 59 259 42:28.2 13:42/M
9 Diane Cronk Harker Heights TX 604 56 288 46:58.1 15:09/M
10 Lotte Bostick Eddy TX 170 56 304 49:03.0 15:49/M
11 Becky Bringhurst Copperas Cove TX 579 56 329 57:05.8 18:25/M
12 Vickie Denning 614 58 333 58:38.3 18:55/M
Top

Male 55 to 59

Place Name City Bib No Age Overall Total Time Pace
1 Travis Owens Temple 48 57 40 24:05.4 7:46/M
2 Jack Jon Belton 210 59 69 26:00.1 8:23/M
3 Mark Groveunder Temple TX 660 55 81 26:54.1 8:41/M
4 Danny Freeman Willis TX 169 59 82 26:57.0 8:42/M
5 William Keller 985 55 86 27:13.0 8:47/M
6 Jay Atwood Temple TX 557 57 102 28:01.9 9:02/M
7 Jim Richardson Temple TX 69 56 124 29:50.3 9:37/M
8 William Cronk Harker Heights TX 605 57 136 31:04.1 10:01/M
9 Byron Nelson Temple TX 39 55 154 32:53.5 10:36/M
10 David Erickson Harker Heights TX 633 56 184 35:27.5 11:26/M
11 Robert G. Gumbs Killeen,tx 76549 664 59 188 35:36.9 11:29/M
12 Steve Sullivan Temple TX 172 58 243 40:01.5 12:55/M
13 William Gibson Harker Heights TX 200 56 266 42:51.0 13:49/M
14 Fernando Chacon Temple TX 595 55 270 43:11.6 13:56/M
Top

Female 60 to 64

Place Name City Bib No Age Overall Total Time Pace
1 Angie Wilson Harker Heights TX 148 61 107 28:41.2 9:15/M
2 Ursula Gumbs Killeen TX 665 61 189 35:37.1 11:29/M
3 Patsy Palmer Copperas Cove TX 49 64 263 42:36.2 13:45/M
4 Sandy McCuskey Killeen TX 190 60 279 44:11.6 14:15/M
5 Kathleen Johnson Harker Heights 692 62 286 46:36.5 15:02/M
Top

Male 60 to 64

Place Name City Bib No Age Overall Total Time Pace
1 Rob Sanders Waco TX 162 62 25 22:22.4 7:13/M
2 Jack Jones Temple TX 202 60 33 23:02.1 7:26/M
3 Scott Scholl 91 60 49 24:48.0 8:00/M
4 Bob Lesieur Killeen TX 6 60 119 29:31.7 9:31/M
5 Tom Rogers Temple TX 175 64 249 40:55.3 13:12/M
6 Charles Wilson Copperas Cove TX 149 62 256 41:58.7 13:32/M
Top

Female 65 to 69

Place Name City Bib No Age Overall Total Time Pace
1 Josephine Oates Killeen TX 46 67 290 47:15.0 15:15/M
2 Linda Rhoades Harker Heights TX 66 66 319 53:46.4 17:21/M
3 Kathryn Zingone Temple,tx 76504 TX 155 69 324 55:16.9 17:50/M
Top

Male 65 to 69

Place Name City Bib No Age Overall Total Time Pace
1 Pete Boulette Temple TX 573 67 75 26:30.4 8:33/M
2 Skip Landerman Killeen TX 998 65 93 27:46.4 8:57/M
3 Luis Rivera Nolanville TX 72 69 98 27:55.1 9:00/M
4 Don Rhoades Harker Heights TX 65 66 233 39:01.9 12:35/M
Top

Female 70 to 74

Place Name City Bib No Age Overall Total Time Pace
1 Mary Gaines Copperas Cove TX 645 73 305 49:17.4 15:54/M
Top

Male 70 to 74

Place Name City Bib No Age Overall Total Time Pace
1 Dennis Alston Calvert TX 552 71 110 28:53.8 9:19/M
2 Jess Hamilton Copperas Cove TX 670 73 234 39:02.2 12:35/M
3 Robert Dunlop Chazy NY 621 74 285 46:12.9 14:54/M
Top

Female 75 and Over

Place Name City Bib No Age Overall Total Time Pace
  No Finishers 0:00.0
Top

Male 75 and Over

Place Name City Bib No Age Overall Total Time Pace
  No Finishers 0:00.0